Terminal Aerodrome Forecast
Issued by NWS

Home | Current Version | Previous Version | Text Only | Print | Product List | Glossary On
Versions: 1 2 3 4 5 6 7 8 9 10 11 12 13 14 15 16 17 18
000
FTUS43 KIND 231700
TAFHUF
TAF
KHUF 231720Z 2318/2418 36009KT 5SM -RA BR BKN009 OVC014
     FM232000 36010KT P6SM BKN040 BKN100
     FM240600 36005KT 4SM BR SKC
     FM240900 02006KT P6SM SKC=

USA.gov is the U.S. government's official web portal to all federal, state and local government web resources and services.